Time;durP1;ratioP1;P1;durP2;ratioP2;P2;SDS_P1;SDS_P2;PMS_P1;PMS_P2;Temp;Humidity;BMP_temperature;BMP_pressure;BME280_temperature;BME280_humidity;BME280_pressure;Samples;Min_cycle;Max_cycle;Signal;HPM_P1;HPM_P2
2023/05/20 00:42:03;;;;;;;;;;;;;;;;;;;;;
2023/05/20 08:25:09;;;;;;;11.70;8.90;;;;;;;21.04;42.24;100928.05;89541;1301;505353;-89
2023/05/20 08:27:36;;;;;;;10.90;9.30;;;;;;;21.07;42.42;100925.71;105134;1308;72718;-89
2023/05/20 08:30:03;;;;;;;13.00;9.40;;;;;;;21.08;42.30;100921.83;104841;1308;67945;-89
2023/05/20 08:32:30;;;;;;;11.20;9.10;;;;;;;21.09;42.25;100926.49;105164;1305;72609;-90
2023/05/20 08:34:56;;;;;;;9.80;8.50;;;;;;;21.10;42.22;100924.60;105036;1300;67579;-87
2023/05/20 08:37:22;;;;;;;10.90;9.00;;;;;;;21.11;42.37;100926.55;105052;1306;67629;-90
2023/05/20 08:39:50;;;;;;;10.90;9.60;;;;;;;21.12;42.39;100919.60;105350;1302;67794;-89
2023/05/20 08:42:20;;;;;;;10.30;9.30;;;;;;;21.13;42.07;100919.75;105069;1301;83125;-90
2023/05/20 08:44:47;;;;;;;10.80;9.40;;;;;;;21.14;42.20;100917.83;105004;1308;72475;-90
2023/05/20 08:47:12;;;;;;;10.30;9.30;;;;;;;21.15;42.21;100912.67;104857;1308;67604;-89
2023/05/20 08:49:48;;;;;;;11.00;9.80;;;;;;;21.16;42.23;100910.36;104703;1302;66997;31
2023/05/20 08:52:17;;;;;;;11.30;10.00;;;;;;;21.18;42.27;100912.94;105113;1308;73645;-89
2023/05/20 08:54:48;;;;;;;10.70;9.60;;;;;;;21.18;42.21;100911.00;104898;1307;83032;-88
2023/05/20 08:57:13;;;;;;;;;;;;;;;21.19;42.21;100908.85;105092;1308;71861;-89
2023/05/20 08:59:44;;;;;;;11.70;10.40;;;;;;;21.15;42.21;100913.80;104969;1302;67322;-89
2023/05/20 09:02:10;;;;;;;11.00;9.50;;;;;;;21.16;42.15;100912.47;104941;1307;67201;-89
2023/05/20 09:04:48;;;;;;;11.30;10.10;;;;;;;21.17;42.08;100915.90;105069;1302;67674;31
2023/05/20 09:07:13;;;;;;;13.70;10.00;;;;;;;21.17;42.14;100912.48;105265;1308;83290;-89
2023/05/20 09:09:40;;;;;;;11.40;9.90;;;;;;;21.19;42.07;100906.44;104988;1308;67823;-89
2023/05/20 09:12:06;;;;;;;10.80;9.70;;;;;;;21.21;42.10;100907.93;105016;1305;67843;-89
2023/05/20 09:14:32;;;;;;;11.00;9.80;;;;;;;21.21;42.02;100898.92;105161;1301;67668;-89
2023/05/20 09:17:04;;;;;;;11.20;10.00;;;;;;;21.21;42.09;100901.70;104675;1308;515555;-92
2023/05/20 09:19:38;;;;;;;11.50;9.80;;;;;;;21.22;42.09;100896.27;105095;1299;83273;31
2023/05/20 09:22:04;;;;;;;10.60;9.50;;;;;;;21.22;42.16;100890.94;104939;1308;72451;-89
2023/05/20 09:24:31;;;;;;;10.40;9.30;;;;;;;21.23;42.22;100891.46;104974;1305;67760;-89
2023/05/20 09:26:57;;;;;;;11.70;10.10;;;;;;;21.23;41.91;100884.11;104995;1306;67910;-89
2023/05/20 09:29:23;;;;;;;11.90;9.80;;;;;;;21.24;42.14;100879.39;104897;1308;67680;-89
2023/05/20 09:31:50;;;;;;;10.60;9.50;;;;;;;21.24;42.06;100878.99;104889;1301;67630;-89
2023/05/20 09:40:36;;;;;;;11.10;10.00;;;;;;;21.25;42.27;100871.15;104859;1299;67550;31
2023/05/20 09:43:05;;;;;;;11.90;9.10;;;;;;;21.25;42.19;100875.20;104884;1308;72876;-89
2023/05/20 09:45:34;;;;;;;12.20;9.50;;;;;;;21.26;42.10;100870.55;104875;1305;82961;-89
2023/05/20 09:48:01;;;;;;;14.50;9.60;;;;;;;21.27;42.13;100869.38;105012;1308;71985;-89
2023/05/20 09:50:28;;;;;;;11.50;10.30;;;;;;;21.27;42.08;100871.03;104834;1308;68095;-90
2023/05/20 09:53:04;;;;;;;10.50;9.30;;;;;;;21.28;42.20;100869.85;105146;1305;67631;-89
2023/05/20 09:55:53;;;;;;;11.30;10.00;;;;;;;21.28;42.11;100869.30;104891;1302;73843;31
2023/05/20 10:01:32;;;;;;;11.30;9.30;;;;;;;21.29;42.05;100871.44;96998;1299;553855;31
2023/05/20 10:03:58;;;;;;;9.50;8.50;;;;;;;21.30;42.15;100871.24;104879;1309;67830;-89
2023/05/20 10:06:48;;;;;;;9.80;8.90;;;;;;;21.31;42.19;100869.20;105238;1303;67635;-90
2023/05/20 10:09:36;;;;;;;10.20;9.20;;;;;;;21.32;42.12;100861.42;105049;1305;72858;-89
2023/05/20 10:15:05;;;;;;;10.10;9.00;;;;;;;21.32;42.14;100851.54;105202;1302;72425;-89
2023/05/20 10:18:00;;;;;;;11.30;9.10;;;;;;;21.33;42.28;100849.60;105226;1304;67918;-90
2023/05/20 10:20:26;;;;;;;10.10;9.00;;;;;;;21.33;42.14;100845.81;105358;1302;67799;-90
2023/05/20 10:22:58;;;;;;;10.50;9.20;;;;;;;21.33;42.33;100841.16;105274;1304;73669;-89
2023/05/20 10:25:52;;;;;;;10.50;9.30;;;;;;;21.33;42.26;100841.61;105291;1299;85839;-86
2023/05/20 10:28:35;;;;;;;13.70;8.60;;;;;;;21.33;42.27;100839.66;105122;1299;72557;31
2023/05/20 10:31:01;;;;;;;11.80;9.10;;;;;;;21.34;42.14;100834.41;104964;1308;67764;-90
2023/05/20 10:33:27;;;;;;;10.90;9.10;;;;;;;21.35;42.15;100837.98;105167;1305;67283;-88
2023/05/20 10:36:00;;;;;;;11.90;9.10;;;;;;;21.35;42.23;100840.45;105146;1305;67012;-89
2023/05/20 10:38:28;;;;;;;12.30;9.00;;;;;;;21.36;42.24;100838.00;105283;1305;82962;-89
2023/05/20 10:41:11;;;;;;;11.90;8.90;;;;;;;21.37;42.20;100832.21;104995;1306;72615;-88
2023/05/20 10:43:38;;;;;;;12.80;9.20;;;;;;;21.37;42.14;100826.17;105120;1299;67227;-89
2023/05/20 10:46:23;;;;;;;11.60;9.00;;;;;;;21.38;42.15;100822.85;105479;1305;67451;-88
2023/05/20 10:48:50;;;;;;;11.00;9.10;;;;;;;21.38;42.08;100822.14;105244;1308;73792;-88
2023/05/20 10:51:16;;;;;;;10.10;8.90;;;;;;;21.39;42.10;100820.20;105129;1305;67733;-88
2023/05/20 10:53:45;;;;;;;12.00;8.80;;;;;;;21.39;42.01;100818.30;105241;1305;72689;-88
2023/05/20 10:56:18;;;;;;;9.80;8.80;;;;;;;21.39;42.10;100810.33;105027;1306;67860;-89
2023/05/20 10:58:47;;;;;;;10.00;8.90;;;;;;;21.40;41.99;100807.71;104836;1306;67093;-89
2023/05/20 11:01:24;;;;;;;11.00;8.50;;;;;;;21.40;41.95;100805.83;105267;1306;73800;31
2023/05/20 11:03:50;;;;;;;13.20;9.20;;;;;;;21.41;42.12;100805.37;105350;1305;82819;-89
2023/05/20 11:06:16;;;;;;;11.00;9.20;;;;;;;21.41;42.01;100801.05;105475;1298;67142;-88
2023/05/20 11:08:45;;;;;;;9.50;8.50;;;;;;;21.42;42.13;100803.88;105086;1305;67919;-89
2023/05/20 11:11:13;;;;;;;9.80;8.70;;;;;;;21.42;42.08;100801.68;105189;1304;67064;-89
2023/05/20 11:13:38;;;;;;;12.30;9.10;;;;;;;21.43;41.95;100802.65;104931;1306;73346;-89
2023/05/20 11:16:12;;;;;;;9.20;8.30;;;;;;;21.44;41.85;100797.11;105239;1300;67661;31
2023/05/20 11:18:38;;;;;;;11.00;9.20;;;;;;;21.45;41.88;100783.41;105228;1306;72747;-89
2023/05/20 11:21:04;;;;;;;10.70;8.50;;;;;;;21.44;41.78;100776.17;105358;1302;67979;-89
2023/05/20 11:23:30;;;;;;;11.20;8.40;;;;;;;21.45;41.83;100783.41;105170;1305;67608;-89
2023/05/20 11:25:59;;;;;;;11.10;8.80;;;;;;;21.44;41.65;100773.06;104951;1301;68576;-89
2023/05/20 11:28:26;;;;;;;10.40;8.70;;;;;;;21.45;41.69;100766.40;105012;1302;83090;-88
2023/05/20 11:33:28;;;;;;;10.70;9.20;;;;;;;21.45;41.88;100758.93;105325;1305;67647;-89
2023/05/20 11:35:55;;;;;;;10.70;9.10;;;;;;;21.45;41.64;100754.43;105163;1305;67750;-89
2023/05/20 11:38:22;;;;;;;11.90;9.00;;;;;;;21.45;41.75;100744.90;105020;1306;73696;-89
2023/05/20 11:40:56;;;;;;;11.30;8.80;;;;;;;21.47;41.56;100742.96;105215;1305;83428;-89
2023/05/20 11:43:22;;;;;;;12.00;8.70;;;;;;;21.48;41.60;100735.48;104928;1302;72373;-88
2023/05/20 11:52:09;;;;;;;9.80;8.40;;;;;;;21.47;41.47;100729.36;104981;1299;462721;-88
2023/05/20 11:54:35;;;;;;;10.10;8.90;;;;;;;21.48;41.47;100727.52;105018;1308;84117;-89
2023/05/20 11:57:01;;;;;;;11.20;8.50;;;;;;;21.49;41.40;100725.93;105343;1304;67709;-88
2023/05/20 11:59:28;;;;;;;10.80;8.10;;;;;;;21.49;41.34;100726.33;105217;1304;67736;-90
2023/05/20 12:01:56;;;;;;;10.10;8.50;;;;;;;21.49;41.40;100725.83;105164;1304;67654;-90
2023/05/20 12:04:22;;;;;;;16.30;8.90;;;;;;;21.50;41.24;100721.12;105270;1305;73722;-89
2023/05/20 12:09:27;;;;;;;10.40;8.60;;;;;;;21.52;41.25;100715.03;105270;1305;73329;-90
2023/05/20 12:11:55;;;;;;;12.80;8.70;;;;;;;21.52;41.14;100706.27;105147;1302;67378;-89
2023/05/20 12:14:21;;;;;;;11.80;8.60;;;;;;;21.52;41.10;100706.08;105379;1307;67179;-89
2023/05/20 12:16:47;;;;;;;11.30;8.10;;;;;;;21.53;41.01;100697.07;104892;1305;67846;-89
2023/05/20 12:19:14;;;;;;;10.80;7.90;;;;;;;21.54;41.04;100694.56;105229;1301;67712;-89
2023/05/20 12:21:40;;;;;;;10.60;8.80;;;;;;;21.53;40.88;100687.70;104965;1306;67149;-89
2023/05/20 12:24:14;;;;;;;10.70;8.00;;;;;;;21.54;40.97;100693.52;105137;1305;67769;-90
2023/05/20 12:26:40;;;;;;;10.00;7.60;;;;;;;21.55;40.89;100692.56;105383;1305;68131;-89
2023/05/20 12:29:06;;;;;;;10.20;8.20;;;;;;;21.55;40.74;100702.69;105389;1302;67951;-89
2023/05/20 12:31:32;;;;;;;10.30;8.00;;;;;;;21.55;40.79;100701.30;105020;1305;67976;-89
2023/05/20 12:34:07;;;;;;;8.80;7.60;;;;;;;21.55;40.77;100696.60;105429;1299;67918;-88
2023/05/20 12:36:33;;;;;;;8.20;7.30;;;;;;;21.56;40.62;100684.73;105304;1306;67022;-89
2023/05/20 12:41:36;;;;;;;11.10;7.80;;;;;;;21.57;40.60;100678.94;105392;1303;73057;-88
2023/05/20 12:44:03;;;;;;;11.40;8.40;;;;;;;21.57;40.50;100676.98;105370;1302;82886;-89
2023/05/20 12:46:31;;;;;;;10.00;8.00;;;;;;;21.58;40.36;100672.18;105337;1305;67739;-89
2023/05/20 12:49:04;;;;;;;10.30;7.70;;;;;;;21.58;40.44;100670.08;105343;1298;68313;-88
2023/05/20 12:51:30;;;;;;;12.30;8.50;;;;;;;21.58;40.36;100665.02;105216;1304;67742;-89
2023/05/20 12:53:56;;;;;;;11.10;8.20;;;;;;;21.58;40.27;100670.23;105009;1305;67693;-89
2023/05/20 12:56:24;;;;;;;9.60;7.70;;;;;;;21.58;40.28;100660.86;105286;1305;67363;-89
2023/05/20 12:58:49;;;;;;;8.90;7.70;;;;;;;21.59;40.19;100655.04;104951;1305;67614;-89
2023/05/20 13:01:24;;;;;;;11.30;7.60;;;;;;;21.59;40.18;100648.48;105232;1305;67717;-89
2023/05/20 13:03:55;;;;;;;9.20;7.50;;;;;;;21.59;40.18;100661.18;105234;1305;68091;-88
2023/05/20 13:06:21;;;;;;;11.50;7.40;;;;;;;21.58;40.08;100683.29;105205;1305;73600;-89
2023/05/20 13:08:47;;;;;;;11.30;8.30;;;;;;;21.58;40.00;100695.59;105103;1305;68590;-88
2023/05/20 13:11:12;;;;;;;11.50;8.00;;;;;;;21.57;39.97;100694.25;105018;1305;67831;-89
2023/05/20 13:13:38;;;;;;;13.60;7.70;;;;;;;21.56;40.02;100689.13;105059;1304;67575;-90
2023/05/20 13:16:12;;;;;;;10.20;7.60;;;;;;;21.56;39.91;100692.76;104995;1305;67093;-89
2023/05/20 13:19:01;;;;;;;10.60;7.30;;;;;;;21.56;39.88;100697.31;105044;1299;67603;31
2023/05/20 13:24:03;;;;;;;10.90;7.40;;;;;;;21.54;39.78;100703.00;105294;1305;71561;-90
2023/05/20 13:26:35;;;;;;;8.90;7.20;;;;;;;21.53;39.81;100706.28;105344;1299;67726;-90
2023/05/20 13:29:01;;;;;;;8.40;7.20;;;;;;;21.52;39.85;100706.89;105209;1301;67516;-89
2023/05/20 13:31:27;;;;;;;9.20;7.90;;;;;;;21.52;39.83;100709.04;105119;1305;67750;-90
2023/05/20 13:33:54;;;;;;;13.20;7.10;;;;;;;21.51;39.72;100712.88;105167;1299;67084;-89
2023/05/20 13:36:20;;;;;;;9.30;7.00;;;;;;;21.51;39.75;100704.73;105021;1304;67651;-90
2023/05/20 13:38:46;;;;;;;10.20;7.60;;;;;;;21.50;39.75;100705.29;104976;1305;67141;-89
2023/05/20 13:41:15;;;;;;;9.50;7.30;;;;;;;21.49;39.59;100702.73;104949;1305;67037;-89
2023/05/20 13:43:41;;;;;;;9.00;7.00;;;;;;;21.48;39.56;100697.51;105352;1302;74789;-89
2023/05/20 13:46:07;;;;;;;10.60;7.80;;;;;;;21.48;39.64;100694.19;104937;1306;67908;-88
2023/05/20 13:48:42;;;;;;;9.90;7.30;;;;;;;21.48;39.56;100697.61;105027;1306;67430;31
2023/05/20 13:51:08;;;;;;;11.00;7.30;;;;;;;21.48;39.54;100698.90;105155;1307;67276;-89
2023/05/20 13:53:34;;;;;;;9.10;7.10;;;;;;;21.47;39.52;100696.13;104912;1302;67325;-89
2023/05/20 13:56:00;;;;;;;9.00;7.40;;;;;;;21.46;39.62;100698.16;104828;1306;67692;-89
2023/05/20 13:58:30;;;;;;;10.10;7.00;;;;;;;21.47;39.53;100700.73;105445;1302;67863;-89
2023/05/20 14:01:04;;;;;;;9.30;7.10;;;;;;;21.47;39.50;100706.67;105489;1302;71288;-89
2023/05/20 14:03:37;;;;;;;7.60;6.70;;;;;;;21.47;39.50;100715.53;105368;1298;67587;31
2023/05/20 14:06:02;;;;;;;8.00;6.80;;;;;;;21.46;39.56;100718.40;104985;1305;66975;-89
2023/05/20 14:08:29;;;;;;;12.70;7.50;;;;;;;21.46;39.34;100726.13;105127;1301;67646;-89
2023/05/20 14:10:58;;;;;;;10.00;7.10;;;;;;;21.45;39.47;100726.89;105127;1301;67938;-89
2023/05/20 14:13:24;;;;;;;9.70;7.60;;;;;;;21.46;39.27;100721.05;105287;1304;71530;-90
2023/05/20 14:15:50;;;;;;;9.00;7.20;;;;;;;21.46;39.53;100714.80;105203;1305;67724;-89
2023/05/20 14:20:49;;;;;;;8.90;7.10;;;;;;;21.46;39.49;100713.69;105371;1304;73541;-90
2023/05/20 14:23:29;;;;;;;10.50;7.40;;;;;;;21.46;39.36;100714.96;104947;1305;82202;-90
2023/05/20 14:25:57;;;;;;;12.30;7.60;;;;;;;21.45;39.38;100718.70;105352;1304;72747;-89
2023/05/20 14:28:25;;;;;;;8.60;7.20;;;;;;;21.46;39.39;100717.21;105376;1305;66937;-89
2023/05/20 14:30:50;;;;;;;9.70;7.40;;;;;;;21.46;39.49;100717.77;105259;1305;67668;-90
2023/05/20 14:33:17;;;;;;;10.00;7.40;;;;;;;21.45;39.29;100717.88;105143;1307;67525;-90
2023/05/20 14:35:42;;;;;;;8.60;7.30;;;;;;;21.45;39.44;100715.58;105020;1308;67860;-89
2023/05/20 14:38:08;;;;;;;8.00;7.20;;;;;;;21.45;39.49;100721.77;104861;1309;67077;-90
2023/05/20 14:40:34;;;;;;;10.60;7.50;;;;;;;21.45;39.49;100719.21;104800;1309;67598;-90
2023/05/20 14:43:00;;;;;;;8.00;7.10;;;;;;;21.44;39.41;100714.44;105392;1307;67179;-90
2023/05/20 14:45:26;;;;;;;9.20;6.90;;;;;;;21.44;39.35;100706.56;105107;1308;67788;-90
2023/05/20 14:47:51;;;;;;;7.80;6.90;;;;;;;21.43;39.48;100693.66;105033;1308;72380;-89
2023/05/20 14:50:17;;;;;;;8.20;7.00;;;;;;;21.42;39.38;100689.38;105118;1308;66992;-89
2023/05/20 14:52:42;;;;;;;8.40;7.20;;;;;;;21.43;39.43;100677.45;104785;1307;67823;-89
2023/05/20 14:55:08;;;;;;;9.70;7.10;;;;;;;21.42;39.39;100674.27;105014;1308;67597;-89
2023/05/20 14:57:34;;;;;;;9.90;7.10;;;;;;;21.42;39.45;100676.01;105028;1308;67827;-89
2023/05/20 15:00:00;;;;;;;9.00;7.10;;;;;;;21.42;39.47;100672.02;105021;1308;67708;-89
2023/05/20 15:02:26;;;;;;;8.10;6.80;;;;;;;21.42;39.38;100665.21;104871;1307;67590;-89
2023/05/20 15:04:52;;;;;;;8.60;7.00;;;;;;;21.42;39.52;100662.85;104848;1307;67570;-89
2023/05/20 15:07:18;;;;;;;9.60;6.80;;;;;;;21.42;39.44;100659.73;104937;1304;67126;-88
2023/05/20 15:09:43;;;;;;;7.70;6.50;;;;;;;21.42;39.33;100658.20;105332;1299;67639;-88
2023/05/20 15:14:48;;;;;;;7.90;7.10;;;;;;;21.43;39.43;100648.55;105231;1308;67719;-89
2023/05/20 15:17:17;;;;;;;9.90;7.50;;;;;;;21.43;39.34;100643.50;105129;1306;73904;-89
2023/05/20 15:19:42;;;;;;;8.60;7.40;;;;;;;21.43;39.38;100639.15;104908;1305;67220;-89
2023/05/20 15:22:08;;;;;;;7.70;6.90;;;;;;;21.43;39.40;100637.71;105109;1305;67870;-89
2023/05/20 15:24:36;;;;;;;10.30;7.30;;;;;;;21.43;39.47;100637.56;105199;1302;67311;-89
2023/05/20 15:27:22;;;;;;;7.90;7.00;;;;;;;21.43;39.49;100633.77;105240;1305;67308;-89
2023/05/20 15:29:48;;;;;;;7.10;6.40;;;;;;;21.43;39.41;100628.30;104920;1307;74437;-89
2023/05/20 15:32:15;;;;;;;8.90;6.80;;;;;;;21.43;39.52;100620.00;105317;1302;67372;-89
2023/05/20 15:34:41;;;;;;;10.80;7.30;;;;;;;21.43;39.49;100621.73;105357;1302;67060;-89
2023/05/20 15:37:07;;;;;;;8.00;7.20;;;;;;;21.43;39.52;100619.59;105063;1301;67933;-89
2023/05/20 15:40:08;;;;;;;7.80;6.80;;;;;;;21.43;39.51;100619.48;105228;1302;67761;-88
2023/05/20 15:42:37;;;;;;;8.40;7.50;;;;;;;21.42;39.48;100624.46;104968;1305;73716;-88
2023/05/20 15:45:39;;;;;;;7.60;6.80;;;;;;;21.43;39.60;100623.53;105304;1305;82976;-89
2023/05/20 15:48:27;;;;;;;8.00;6.90;;;;;;;21.43;39.49;100630.96;105177;1299;72578;31
2023/05/20 15:50:53;;;;;;;7.80;7.00;;;;;;;21.42;39.48;100634.38;104827;1307;67024;-89
2023/05/20 15:53:18;;;;;;;8.00;7.00;;;;;;;21.41;39.61;100629.53;105011;1308;67957;-89
2023/05/20 15:55:46;;;;;;;8.00;7.00;;;;;;;21.42;39.65;100636.91;105216;1305;67616;-89
2023/05/20 15:58:12;;;;;;;7.40;6.70;;;;;;;21.43;39.66;100639.66;105309;1305;83227;-89
2023/05/20 16:00:38;;;;;;;9.70;6.80;;;;;;;21.42;39.64;100632.60;105217;1305;67810;-89
2023/05/20 16:03:12;;;;;;;8.80;7.20;;;;;;;21.42;39.68;100636.90;105010;1305;67111;31
2023/05/20 16:05:38;;;;;;;8.00;7.10;;;;;;;21.41;39.73;100636.84;104996;1308;66958;-89
2023/05/20 16:08:05;;;;;;;7.80;6.90;;;;;;;21.41;39.94;100645.14;104961;1306;67047;-89
2023/05/20 16:10:33;;;;;;;8.00;6.90;;;;;;;21.41;39.79;100650.92;104968;1302;67910;-89
2023/05/20 16:12:59;;;;;;;10.80;7.30;;;;;;;21.41;39.84;100647.09;105033;1305;72641;-89
2023/05/20 16:15:26;;;;;;;10.70;7.30;;;;;;;21.41;39.72;100643.71;105166;1305;67781;-88
2023/05/20 16:18:13;;;;;;;9.10;6.60;;;;;;;21.41;39.69;100646.21;105388;1304;67674;-89
2023/05/20 16:20:38;;;;;;;7.20;6.50;;;;;;;21.40;39.76;100652.11;105136;1308;73745;-89
2023/05/20 16:23:06;;;;;;;8.70;6.60;;;;;;;21.40;39.75;100658.35;105163;1305;67217;-89
2023/05/20 16:25:34;;;;;;;8.60;6.90;;;;;;;21.41;39.79;100659.27;104940;1308;72532;-89
2023/05/20 16:28:00;;;;;;;8.80;6.60;;;;;;;21.40;39.93;100665.11;105120;1304;69052;-89
2023/05/20 16:30:29;;;;;;;9.70;6.90;;;;;;;21.40;39.84;100667.05;105033;1301;67828;-89
2023/05/20 16:36:04;;;;;;;7.40;6.70;;;;;;;21.39;39.76;100660.18;105009;1308;83315;-89
2023/05/20 16:38:31;;;;;;;8.30;7.10;;;;;;;21.38;39.82;100659.27;105127;1307;72399;-89
2023/05/20 16:40:57;;;;;;;7.00;6.30;;;;;;;21.38;39.82;100656.23;104916;1305;67677;-89
2023/05/20 16:46:05;;;;;;;9.00;6.40;;;;;;;21.37;39.87;100657.83;105232;1305;74459;-90
2023/05/20 16:48:32;;;;;;;8.40;6.80;;;;;;;21.37;39.73;100661.77;104939;1305;83134;-89
2023/05/20 16:51:04;;;;;;;7.10;6.40;;;;;;;21.37;39.84;100660.74;105021;1299;67926;31
2023/05/20 16:53:30;;;;;;;7.00;6.30;;;;;;;21.36;39.91;100661.24;105004;1305;67783;-89
2023/05/20 16:56:00;;;;;;;8.50;6.70;;;;;;;21.37;39.93;100659.30;105246;1305;67245;-89
2023/05/20 16:58:26;;;;;;;9.30;6.80;;;;;;;21.36;40.04;100673.44;104801;1305;73601;-89
2023/05/20 17:00:53;;;;;;;9.10;6.60;;;;;;;21.36;39.82;100673.70;104989;1306;67924;-89
2023/05/20 17:03:20;;;;;;;8.70;6.60;;;;;;;21.35;39.93;100675.16;104950;1300;72324;-89
2023/05/20 17:12:17;;;;;;;7.90;6.20;;;;;;;21.33;40.05;100662.67;105193;1307;73917;-89
2023/05/20 17:17:13;;;;;;;6.70;6.10;;;;;;;21.32;40.21;100657.45;105305;1305;71339;-90
2023/05/20 17:19:40;;;;;;;8.20;6.20;;;;;;;21.31;40.00;100658.69;105356;1302;67600;-89
2023/05/20 17:22:06;;;;;;;7.60;6.10;;;;;;;21.31;39.86;100658.03;105201;1305;67618;-89
2023/05/20 17:24:33;;;;;;;6.90;5.80;;;;;;;21.30;40.10;100658.28;104973;1305;67003;-89
2023/05/20 17:27:08;;;;;;;7.10;6.00;;;;;;;21.30;40.12;100656.59;105245;1299;67187;-89
2023/05/20 17:29:53;;;;;;;8.60;6.70;;;;;;;21.30;40.10;100650.75;105138;1305;72366;-89
2023/05/20 17:32:20;;;;;;;6.30;5.70;;;;;;;21.29;40.03;100650.23;104981;1308;67636;-89
2023/05/20 17:34:45;;;;;;;7.40;6.10;;;;;;;21.28;40.19;100645.33;105002;1305;68032;-89
2023/05/20 17:37:11;;;;;;;6.60;5.80;;;;;;;21.28;40.20;100647.84;105354;1305;67847;-89
2023/05/20 17:39:37;;;;;;;7.00;6.30;;;;;;;21.28;40.15;100642.77;104840;1305;67645;-90
2023/05/20 17:42:03;;;;;;;6.90;6.00;;;;;;;21.28;40.21;100636.67;105334;1299;67694;-89
2023/05/20 17:44:29;;;;;;;7.10;5.70;;;;;;;21.27;40.09;100640.87;105416;1304;68837;-89
2023/05/20 17:46:55;;;;;;;7.10;6.40;;;;;;;21.27;40.10;100631.66;105068;1308;73477;-89
2023/05/20 17:49:20;;;;;;;6.80;6.10;;;;;;;21.27;40.31;100630.80;104949;1305;68427;-89
2023/05/20 17:51:46;;;;;;;8.60;5.80;;;;;;;21.26;40.21;100629.71;105264;1303;68802;-88
2023/05/20 17:54:12;;;;;;;7.60;6.20;;;;;;;21.26;40.35;100632.42;104914;1304;67619;-89
2023/05/20 17:56:46;;;;;;;9.30;6.10;;;;;;;21.26;40.37;100637.34;105397;1298;68339;31
2023/05/20 17:59:13;;;;;;;10.00;6.30;;;;;;;21.25;40.40;100636.41;105257;1306;74696;-89
2023/05/20 18:01:38;;;;;;;7.50;5.90;;;;;;;21.26;40.13;100644.70;105352;1302;67668;-89
2023/05/20 18:04:04;;;;;;;10.10;5.90;;;;;;;21.25;40.36;100643.38;105361;1302;71011;-88
2023/05/20 18:06:33;;;;;;;7.30;6.30;;;;;;;21.25;40.41;100642.66;105187;1305;67732;-89
2023/05/20 18:09:03;;;;;;;6.60;5.70;;;;;;;21.24;40.53;100643.98;105345;1298;67913;-89
2023/05/20 18:14:08;;;;;;;8.90;5.70;;;;;;;21.24;40.46;100647.10;105249;1305;83148;-89
2023/05/20 18:16:34;;;;;;;7.10;5.80;;;;;;;21.23;40.47;100648.18;104973;1306;67488;-89
2023/05/20 18:19:01;;;;;;;8.70;5.80;;;;;;;21.23;40.58;100653.25;104990;1305;67892;-89
2023/05/20 18:21:27;;;;;;;8.70;6.10;;;;;;;21.23;40.56;100651.05;105273;1305;67196;-89
2023/05/20 18:23:54;;;;;;;8.50;5.80;;;;;;;21.23;40.49;100658.10;105356;1305;67723;-89
2023/05/20 18:26:20;;;;;;;8.00;6.10;;;;;;;21.23;40.52;100659.84;105412;1305;67039;-89
2023/05/20 18:28:46;;;;;;;7.90;5.90;;;;;;;21.22;40.48;100659.08;104947;1306;67280;-89
2023/05/20 18:31:12;;;;;;;6.50;5.80;;;;;;;21.22;40.65;100658.46;105150;1308;67669;-89
2023/05/20 18:33:39;;;;;;;7.40;6.20;;;;;;;21.22;40.64;100661.84;105355;1302;67211;-89
2023/05/20 18:36:10;;;;;;;9.10;6.40;;;;;;;21.22;40.73;100664.19;105233;1304;67017;-89
2023/05/20 18:38:41;;;;;;;;;;;;;;;21.22;40.74;100661.54;105234;1299;82034;31
2023/05/20 18:41:06;;;;;;;7.70;6.20;;;;;;;21.18;40.70;100666.86;105100;1307;72588;-89
2023/05/20 18:43:32;;;;;;;7.60;6.10;;;;;;;21.18;40.66;100665.06;105027;1305;67438;-89
2023/05/20 18:46:01;;;;;;;6.90;5.80;;;;;;;21.18;40.92;100661.38;104962;1307;67691;-89
2023/05/20 18:48:27;;;;;;;9.50;5.50;;;;;;;21.19;40.78;100662.15;105265;1306;73642;-89
2023/05/20 18:50:54;;;;;;;7.80;5.80;;;;;;;21.19;40.77;100662.56;105180;1305;67034;-89
2023/05/20 18:55:51;;;;;;;6.70;5.90;;;;;;;21.18;40.93;100669.41;105323;1299;67079;-89
2023/05/20 18:58:17;;;;;;;8.10;5.90;;;;;;;21.18;40.90;100667.77;105182;1305;67678;-89
2023/05/20 19:00:42;;;;;;;10.60;5.70;;;;;;;21.18;40.93;100670.13;105182;1305;67787;-89
2023/05/20 19:03:08;;;;;;;8.50;5.50;;;;;;;21.18;40.89;100669.11;105171;1305;67810;-89
2023/05/20 19:05:34;;;;;;;8.60;6.00;;;;;;;21.18;40.87;100666.40;104950;1305;67615;-89
2023/05/20 19:08:01;;;;;;;7.50;5.80;;;;;;;21.17;40.92;100668.03;105158;1305;67167;-89
2023/05/20 19:10:27;;;;;;;6.20;5.50;;;;;;;21.17;41.00;100668.19;105356;1305;67085;-89
2023/05/20 19:12:53;;;;;;;7.60;5.90;;;;;;;21.17;40.94;100667.42;105412;1305;66930;-89
2023/05/20 19:15:18;;;;;;;11.80;6.10;;;;;;;21.17;40.97;100668.95;105025;1305;67751;-89
2023/05/20 19:17:44;;;;;;;8.40;5.80;;;;;;;21.17;40.83;100670.64;105420;1304;67554;-89
2023/05/20 19:20:17;;;;;;;7.60;6.00;;;;;;;21.17;40.94;100672.48;105446;1304;66964;-89
2023/05/20 19:22:43;;;;;;;8.00;6.10;;;;;;;21.16;40.87;100672.42;105238;1305;72776;-89
2023/05/20 19:25:08;;;;;;;8.70;6.30;;;;;;;21.16;40.96;100673.41;105433;1304;67587;-89
2023/05/20 19:27:34;;;;;;;9.00;6.10;;;;;;;21.16;40.80;100676.32;105213;1305;67612;-89
2023/05/20 19:30:00;;;;;;;7.00;5.70;;;;;;;21.15;41.05;100673.71;105446;1305;66897;-89
2023/05/20 19:32:26;;;;;;;9.20;6.10;;;;;;;21.15;41.07;100672.48;105025;1305;67874;-89
2023/05/20 19:34:52;;;;;;;8.50;6.40;;;;;;;21.16;40.98;100673.60;105323;1305;67670;-89
2023/05/20 19:37:18;;;;;;;7.30;6.10;;;;;;;21.15;41.06;100672.54;105248;1305;73487;-89
2023/05/20 19:39:44;;;;;;;9.60;6.10;;;;;;;21.15;40.97;100671.96;105465;1302;67691;-89
2023/05/20 19:42:11;;;;;;;8.20;6.30;;;;;;;21.15;40.94;100671.65;105226;1305;67805;-89
2023/05/20 19:44:41;;;;;;;10.50;6.20;;;;;;;21.14;40.91;100674.16;105358;1300;67958;-88
2023/05/20 19:47:20;;;;;;;8.60;6.30;;;;;;;21.14;41.04;100674.83;105475;1309;82944;-89
2023/05/20 19:49:47;;;;;;;9.80;6.00;;;;;;;21.13;41.04;100673.45;105217;1308;72560;-89
2023/05/20 19:52:13;;;;;;;6.90;5.70;;;;;;;21.14;41.04;100675.03;104866;1309;67232;-89
2023/05/20 19:54:41;;;;;;;6.70;6.00;;;;;;;21.13;40.97;100680.51;105191;1302;67667;-89
2023/05/20 19:57:06;;;;;;;12.10;6.20;;;;;;;21.13;40.97;100676.11;105310;1304;73727;-89
2023/05/20 19:59:32;;;;;;;7.90;6.10;;;;;;;21.13;40.87;100676.36;105372;1299;69160;-88
2023/05/20 20:02:01;;;;;;;8.70;6.00;;;;;;;21.13;41.01;100679.58;104943;1305;67715;-89
2023/05/20 20:04:45;;;;;;;11.50;6.10;;;;;;;21.12;40.92;100676.97;105056;1308;66977;-89
2023/05/20 20:07:11;;;;;;;8.00;6.00;;;;;;;21.12;40.98;100677.63;105129;1305;67627;-89
2023/05/20 20:09:37;;;;;;;8.30;6.10;;;;;;;21.12;41.05;100672.42;105189;1304;67894;-89
2023/05/20 20:12:03;;;;;;;10.60;6.10;;;;;;;21.12;40.93;100668.48;104934;1306;69281;-89
2023/05/20 20:14:33;;;;;;;6.70;5.50;;;;;;;21.11;41.01;100665.77;104797;1299;548016;-91
2023/05/20 20:19:41;;;;;;;8.50;6.30;;;;;;;21.11;40.96;100665.96;105116;1307;67629;-89
2023/05/20 20:22:07;;;;;;;7.10;6.30;;;;;;;21.10;40.92;100671.23;105355;1302;73762;-89
2023/05/20 20:24:33;;;;;;;9.80;6.50;;;;;;;21.10;40.92;100669.85;104926;1305;67959;-89
2023/05/20 20:26:58;;;;;;;6.80;6.10;;;;;;;21.11;40.99;100672.00;105314;1305;67508;-89
2023/05/20 20:29:25;;;;;;;7.10;5.80;;;;;;;21.10;40.96;100677.84;105208;1299;67709;-89
2023/05/20 20:31:51;;;;;;;7.90;5.90;;;;;;;21.10;40.94;100674.77;105215;1306;67652;-89
2023/05/20 20:34:16;;;;;;;7.70;6.30;;;;;;;21.10;41.03;100674.70;105080;1302;67629;-89
2023/05/20 20:36:43;;;;;;;10.70;6.60;;;;;;;21.10;40.85;100672.15;104792;1305;67918;-89
2023/05/20 20:39:18;;;;;;;7.90;6.40;;;;;;;21.10;41.02;100673.27;104922;1306;67731;-88
2023/05/20 20:41:50;;;;;;;6.90;6.10;;;;;;;21.09;41.05;100671.95;105190;1305;67687;-88